createdAt,value
2018-09-13T00:00:26.423Z,16.33
2018-09-13T00:05:31.926Z,15.87
2018-09-13T00:10:36.274Z,24.10
2018-09-13T00:15:40.464Z,16.57
2018-09-13T00:20:44.121Z,13.30
2018-09-13T00:25:49.055Z,16.27
2018-09-13T00:30:52.915Z,13.07
2018-09-13T00:35:57.424Z,12.53
2018-09-13T00:41:01.410Z,18.10
2018-09-13T00:46:05.683Z,17.07
2018-09-13T00:51:09.831Z,12.80
2018-09-13T00:56:13.515Z,13.77
2018-09-13T01:01:17.495Z,13.13
2018-09-13T01:06:22.078Z,9.53
2018-09-13T01:11:25.932Z,15.70
2018-09-13T01:16:29.951Z,14.90
2018-09-13T01:21:33.549Z,13.10
2018-09-13T01:26:37.661Z,13.30
2018-09-13T01:31:41.399Z,13.23
2018-09-13T01:36:45.121Z,13.93
2018-09-13T01:41:50.274Z,12.73
2018-09-13T01:46:54.040Z,18.87
2018-09-13T01:51:58.052Z,10.83
2018-09-13T01:57:02.160Z,11.63
2018-09-13T02:02:05.778Z,13.20
2018-09-13T02:07:09.686Z,15.90
2018-09-13T02:12:13.304Z,10.90
2018-09-13T02:17:16.907Z,12.00
2018-09-13T02:22:20.546Z,12.00
2018-09-13T02:27:24.321Z,13.40
2018-09-13T02:32:28.072Z,11.77
2018-09-13T02:37:31.874Z,13.77
2018-09-13T02:42:35.524Z,12.43
2018-09-13T02:47:39.852Z,10.47
2018-09-13T02:52:43.501Z,11.80
2018-09-13T02:57:47.608Z,11.77
2018-09-13T03:02:51.646Z,11.90
2018-09-13T03:07:55.509Z,10.30
2018-09-13T03:12:59.233Z,12.70
2018-09-13T03:18:03.009Z,13.97
2018-09-13T03:23:06.599Z,11.20
2018-09-13T03:28:10.320Z,13.30
2018-09-13T03:33:14.079Z,9.93
2018-09-13T03:38:17.722Z,13.07
2018-09-13T03:43:21.800Z,14.30
2018-09-13T03:48:25.408Z,15.73
2018-09-13T03:53:29.084Z,13.13
2018-09-13T03:58:32.688Z,15.37
2018-09-13T04:03:36.336Z,13.07
2018-09-13T04:08:40.162Z,22.83
2018-09-13T04:13:43.883Z,14.23
2018-09-13T04:18:48.950Z,12.83
2018-09-13T04:23:52.446Z,9.50
2018-09-13T04:28:56.040Z,15.57
2018-09-13T04:33:59.683Z,14.70
2018-09-13T04:39:04.163Z,17.87
2018-09-13T04:44:07.869Z,15.83
2018-09-13T04:49:11.650Z,19.80
2018-09-13T04:54:15.292Z,15.23
2018-09-13T04:59:18.844Z,13.60
2018-09-13T05:04:22.489Z,22.63
2018-09-13T05:09:26.095Z,11.53
2018-09-13T05:14:29.683Z,13.63
2018-09-13T05:19:33.315Z,15.80
2018-09-13T05:24:36.907Z,12.70
2018-09-13T05:29:40.492Z,12.77
2018-09-13T05:34:44.151Z,12.93
2018-09-13T05:39:47.995Z,14.20
2018-09-13T05:44:51.588Z,14.30
2018-09-13T05:49:56.932Z,15.70
2018-09-13T05:55:01.264Z,14.50
2018-09-13T06:00:05.461Z,18.27
2018-09-13T06:05:09.107Z,14.60
2018-09-13T06:10:12.844Z,13.20
2018-09-13T06:15:16.464Z,14.53
2018-09-13T06:20:20.181Z,15.70
2018-09-13T06:25:24.054Z,17.40
2018-09-13T06:30:27.660Z,14.40
2018-09-13T06:35:31.407Z,16.73
2018-09-13T06:40:35.135Z,19.53
2018-09-13T06:45:38.849Z,16.10
2018-09-13T06:50:42.496Z,19.00
2018-09-13T06:55:46.117Z,20.07
2018-09-13T07:00:49.803Z,20.63
2018-09-13T07:05:53.427Z,24.43
2018-09-13T07:10:57.227Z,20.10
2018-09-13T07:16:00.963Z,18.93
2018-09-13T07:21:04.730Z,19.77
2018-09-13T07:26:08.447Z,23.40
2018-09-13T07:31:12.108Z,19.23
2018-09-13T07:36:15.699Z,19.97
2018-09-13T07:41:19.744Z,15.60
2018-09-13T07:46:23.388Z,17.00
2018-09-13T07:51:27.219Z,16.03
2018-09-13T07:56:31.088Z,16.53
2018-09-13T08:01:34.731Z,13.87
2018-09-13T08:06:38.425Z,17.77
2018-09-13T08:11:42.297Z,19.27
2018-09-13T08:16:46.021Z,15.17
2018-09-13T08:21:49.707Z,16.40
2018-09-13T08:26:55.099Z,15.27
2018-09-13T08:31:59.569Z,13.37
2018-09-13T08:37:03.365Z,14.83
2018-09-13T08:42:06.912Z,14.73
2018-09-13T08:47:10.493Z,13.53
2018-09-13T08:52:14.158Z,12.80
2018-09-13T08:57:17.809Z,14.03
2018-09-13T09:02:21.435Z,21.93
2018-09-13T09:07:25.199Z,11.73
2018-09-13T09:12:28.921Z,11.80
2018-09-13T09:17:32.626Z,10.97
2018-09-13T09:22:36.353Z,14.53
2018-09-13T09:27:40.007Z,10.60
2018-09-13T09:32:43.628Z,16.33
2018-09-13T09:37:46.892Z,13.73
2018-09-13T09:42:50.511Z,11.93
2018-09-13T09:47:54.291Z,14.03
2018-09-13T09:52:57.714Z,10.67
2018-09-13T09:58:01.426Z,13.60
2018-09-13T10:03:05.062Z,15.50
2018-09-13T10:08:08.897Z,14.90
2018-09-13T10:13:12.538Z,10.50
2018-09-13T10:18:21.607Z,12.47
2018-09-13T10:23:30.627Z,12.53
2018-09-13T10:28:39.732Z,12.23
2018-09-13T10:33:49.403Z,13.20
2018-09-13T10:38:58.370Z,14.37
2018-09-13T10:44:07.920Z,15.70
2018-09-13T10:49:16.895Z,16.53
2018-09-13T10:54:29.550Z,10.70
2018-09-13T10:59:33.144Z,10.77
2018-09-13T11:04:37.264Z,12.10
2018-09-13T11:09:41.220Z,17.60
2018-09-13T11:14:52.753Z,13.40
2018-09-13T11:19:56.736Z,12.50
2018-09-13T11:25:01.266Z,14.40
2018-09-13T11:30:05.771Z,15.47
2018-09-13T11:35:09.439Z,18.63
2018-09-13T11:40:13.474Z,13.13
2018-09-13T11:45:17.366Z,13.53
2018-09-13T11:50:21.150Z,14.10
2018-09-13T11:55:24.832Z,11.60
2018-09-13T12:00:28.568Z,12.93
2018-09-13T12:05:32.367Z,11.47
2018-09-13T12:10:36.824Z,11.80
2018-09-13T12:15:41.111Z,17.43
2018-09-13T12:20:45.474Z,11.83
2018-09-13T12:25:50.088Z,15.40
2018-09-13T12:30:53.710Z,9.70
2018-09-13T12:35:57.639Z,15.40
2018-09-13T12:41:02.035Z,11.70
2018-09-13T12:46:05.431Z,11.47
2018-09-13T12:51:10.112Z,16.47
2018-09-13T12:56:13.835Z,16.60
2018-09-13T13:01:19.140Z,12.87
2018-09-13T13:06:22.904Z,13.30
2018-09-13T13:11:27.151Z,12.73
2018-09-13T13:16:32.444Z,13.00
2018-09-13T13:21:36.824Z,13.87
2018-09-13T13:26:40.619Z,9.53
2018-09-13T13:31:50.964Z,15.53
2018-09-13T13:36:56.696Z,9.50
2018-09-13T13:42:00.398Z,8.77
2018-09-13T13:47:04.216Z,6.97
2018-09-13T13:52:11.140Z,6.73
2018-09-13T13:57:14.491Z,6.33
2018-09-13T14:02:18.235Z,9.43
2018-09-13T14:07:22.046Z,8.37
2018-09-13T14:12:26.207Z,11.83
2018-09-13T14:17:32.392Z,9.50
2018-09-13T14:22:36.219Z,8.30
2018-09-13T14:27:42.030Z,9.10
2018-09-13T14:32:45.874Z,7.90
2018-09-13T14:37:49.302Z,7.27
2018-09-13T14:42:52.613Z,7.97
2018-09-13T14:47:56.011Z,7.90
2018-09-13T14:52:59.725Z,8.33
2018-09-13T14:58:04.025Z,10.20
2018-09-13T15:03:07.858Z,9.90
2018-09-13T15:08:15.471Z,9.63
2018-09-13T15:13:19.112Z,9.87
2018-09-13T15:18:46.107Z,8.80
2018-09-13T15:24:02.086Z,9.67
2018-09-13T15:29:19.663Z,10.30
2018-09-13T15:34:41.533Z,8.80
2018-09-13T15:40:01.294Z,7.63
2018-09-13T15:45:39.854Z,8.67
2018-09-13T15:50:44.471Z,8.50
2018-09-13T15:55:48.480Z,8.77
2018-09-13T16:00:52.734Z,8.27
2018-09-13T16:05:56.415Z,8.03
2018-09-13T16:11:00.031Z,9.67
2018-09-13T16:16:03.681Z,9.10
2018-09-13T16:21:08.088Z,10.13
2018-09-13T16:26:11.662Z,7.53
2018-09-13T16:31:15.626Z,6.63
2018-09-13T16:36:22.727Z,12.50
2018-09-13T16:41:33.361Z,9.90
2018-09-13T16:46:43.143Z,8.67
2018-09-13T16:51:49.039Z,9.63
2018-09-13T16:56:53.653Z,8.33
2018-09-13T17:01:57.377Z,8.53
2018-09-13T17:07:01.129Z,10.30
2018-09-13T17:12:05.007Z,9.40
2018-09-13T17:17:08.681Z,11.00
2018-09-13T17:22:13.168Z,10.83
2018-09-13T17:27:23.236Z,11.13
2018-09-13T17:32:26.874Z,8.80
2018-09-13T17:37:30.771Z,8.40
2018-09-13T17:42:37.015Z,9.17
2018-09-13T17:47:40.834Z,9.97
2018-09-13T17:52:44.656Z,8.80
2018-09-13T17:57:48.463Z,9.07
2018-09-13T18:02:52.948Z,9.30
2018-09-13T18:07:56.829Z,12.60
2018-09-13T18:13:00.928Z,9.13
2018-09-13T18:18:05.199Z,14.47
2018-09-13T18:23:09.184Z,12.23
2018-09-13T18:28:13.381Z,13.17
2018-09-13T18:33:17.420Z,11.00
2018-09-13T18:38:21.886Z,14.80
2018-09-13T18:43:25.904Z,12.00
2018-09-13T18:48:29.773Z,16.83
2018-09-13T18:53:33.472Z,13.43
2018-09-13T18:58:37.155Z,14.40
2018-09-13T19:03:41.256Z,11.87
2018-09-13T19:08:45.303Z,11.33
2018-09-13T19:13:48.999Z,10.17
2018-09-13T19:18:54.334Z,14.57
2018-09-13T19:23:58.049Z,13.13
2018-09-13T19:29:01.587Z,13.47
2018-09-13T19:34:05.732Z,13.57
2018-09-13T19:39:11.020Z,15.37
2018-09-13T19:44:20.725Z,12.40
2018-09-13T19:49:25.943Z,9.30
2018-09-13T19:54:29.756Z,10.00
2018-09-13T19:59:33.652Z,14.30
2018-09-13T20:04:37.427Z,13.20
2018-09-13T20:09:41.440Z,12.90
2018-09-13T20:14:45.293Z,10.83
2018-09-13T20:19:49.052Z,11.50
2018-09-13T20:24:53.119Z,12.30
2018-09-13T20:29:57.612Z,15.10
2018-09-13T20:35:01.410Z,13.33
2018-09-13T20:40:06.932Z,12.63
2018-09-13T20:45:10.959Z,15.70
2018-09-13T20:50:14.616Z,12.10
2018-09-13T20:55:18.433Z,17.30
2018-09-13T21:00:22.272Z,13.50
2018-09-13T21:05:26.426Z,8.63
2018-09-13T21:10:30.132Z,8.97
2018-09-13T21:15:34.847Z,12.80
2018-09-13T21:20:38.892Z,10.63
2018-09-13T21:25:42.920Z,14.40
2018-09-13T21:30:47.764Z,9.57
2018-09-13T21:35:52.230Z,13.93
2018-09-13T21:40:56.885Z,10.37
2018-09-13T21:46:00.800Z,10.60
2018-09-13T21:51:05.343Z,12.17
2018-09-13T21:56:09.433Z,10.07
2018-09-13T22:01:13.996Z,9.80
2018-09-13T22:06:19.374Z,8.23
2018-09-13T22:11:24.963Z,8.40
2018-09-13T22:16:28.646Z,10.70
2018-09-13T22:21:32.607Z,8.80
2018-09-13T22:26:36.495Z,9.87
2018-09-13T22:31:40.170Z,9.60
2018-09-13T22:36:43.835Z,10.30
2018-09-13T22:41:47.546Z,9.00
2018-09-13T22:46:51.565Z,10.73
2018-09-13T22:51:55.199Z,8.60
2018-09-13T22:56:58.947Z,12.00
2018-09-13T23:02:03.221Z,13.00
2018-09-13T23:07:06.965Z,11.30
2018-09-13T23:12:10.979Z,11.07
2018-09-13T23:17:14.591Z,11.73
2018-09-13T23:22:18.290Z,13.27
2018-09-13T23:27:21.944Z,13.40
2018-09-13T23:32:25.852Z,13.10
2018-09-13T23:37:29.450Z,10.93
2018-09-13T23:42:33.232Z,10.73
2018-09-13T23:47:37.062Z,12.00
2018-09-13T23:52:40.728Z,12.53
2018-09-13T23:57:44.370Z,9.53
